sensor_id;sensor_type;location;lat;lon;timestamp;P1;durP1;ratioP1;P2;durP2;ratioP2
56511;SDS011;42408;53.238;5.686;2022-07-24T00:00:18;9.37;;;6.20;;
56511;SDS011;42408;53.238;5.686;2022-07-24T00:02:44;7.90;;;6.03;;
56511;SDS011;42408;53.238;5.686;2022-07-24T00:05:10;9.93;;;6.13;;
56511;SDS011;42408;53.238;5.686;2022-07-24T00:07:35;9.33;;;6.50;;
56511;SDS011;42408;53.238;5.686;2022-07-24T00:10:03;8.43;;;6.23;;
56511;SDS011;42408;53.238;5.686;2022-07-24T00:12:29;9.68;;;6.68;;
56511;SDS011;42408;53.238;5.686;2022-07-24T00:14:55;8.17;;;5.57;;
56511;SDS011;42408;53.238;5.686;2022-07-24T00:17:21;8.37;;;6.67;;
56511;SDS011;42408;53.238;5.686;2022-07-24T00:19:46;7.90;;;6.90;;
56511;SDS011;42408;53.238;5.686;2022-07-24T00:22:12;10.10;;;6.50;;
56511;SDS011;42408;53.238;5.686;2022-07-24T00:24:37;8.33;;;6.80;;
56511;SDS011;42408;53.238;5.686;2022-07-24T00:27:03;10.47;;;7.03;;
56511;SDS011;42408;53.238;5.686;2022-07-24T00:29:29;10.03;;;7.17;;
56511;SDS011;42408;53.238;5.686;2022-07-24T00:31:54;9.17;;;6.10;;
56511;SDS011;42408;53.238;5.686;2022-07-24T00:34:20;9.27;;;6.60;;
56511;SDS011;42408;53.238;5.686;2022-07-24T00:36:45;9.10;;;6.97;;
56511;SDS011;42408;53.238;5.686;2022-07-24T00:39:11;10.60;;;7.30;;
56511;SDS011;42408;53.238;5.686;2022-07-24T00:41:37;10.07;;;6.80;;
56511;SDS011;42408;53.238;5.686;2022-07-24T00:46:32;9.68;;;6.97;;
56511;SDS011;42408;53.238;5.686;2022-07-24T00:48:59;10.50;;;7.20;;
56511;SDS011;42408;53.238;5.686;2022-07-24T00:51:25;8.13;;;6.77;;
56511;SDS011;42408;53.238;5.686;2022-07-24T00:53:51;10.40;;;7.35;;
56511;SDS011;42408;53.238;5.686;2022-07-24T00:56:17;10.07;;;7.60;;
56511;SDS011;42408;53.238;5.686;2022-07-24T00:58:44;9.63;;;7.67;;
56511;SDS011;42408;53.238;5.686;2022-07-24T01:01:11;8.77;;;7.38;;
56511;SDS011;42408;53.238;5.686;2022-07-24T01:03:37;9.13;;;7.13;;
56511;SDS011;42408;53.238;5.686;2022-07-24T01:06:02;10.50;;;7.17;;
56511;SDS011;42408;53.238;5.686;2022-07-24T01:08:28;9.53;;;7.53;;
56511;SDS011;42408;53.238;5.686;2022-07-24T01:10:54;9.37;;;6.70;;
56511;SDS011;42408;53.238;5.686;2022-07-24T01:13:20;12.23;;;8.17;;
56511;SDS011;42408;53.238;5.686;2022-07-24T01:15:46;9.43;;;7.88;;
56511;SDS011;42408;53.238;5.686;2022-07-24T01:18:12;9.32;;;7.05;;
56511;SDS011;42408;53.238;5.686;2022-07-24T01:20:38;14.57;;;8.57;;
56511;SDS011;42408;53.238;5.686;2022-07-24T01:23:04;10.60;;;8.00;;
56511;SDS011;42408;53.238;5.686;2022-07-24T01:25:30;10.07;;;7.97;;
56511;SDS011;42408;53.238;5.686;2022-07-24T01:27:56;12.03;;;8.07;;
56511;SDS011;42408;53.238;5.686;2022-07-24T01:30:22;10.82;;;8.27;;
56511;SDS011;42408;53.238;5.686;2022-07-24T01:32:48;9.90;;;8.20;;
56511;SDS011;42408;53.238;5.686;2022-07-24T01:35:14;10.85;;;8.30;;
56511;SDS011;42408;53.238;5.686;2022-07-24T01:37:40;10.67;;;7.40;;
56511;SDS011;42408;53.238;5.686;2022-07-24T01:40:05;9.63;;;8.30;;
56511;SDS011;42408;53.238;5.686;2022-07-24T01:42:31;10.35;;;8.20;;
56511;SDS011;42408;53.238;5.686;2022-07-24T01:44:57;14.03;;;8.80;;
56511;SDS011;42408;53.238;5.686;2022-07-24T01:47:23;11.97;;;8.70;;
56511;SDS011;42408;53.238;5.686;2022-07-24T01:49:48;11.53;;;8.90;;
56511;SDS011;42408;53.238;5.686;2022-07-24T01:52:14;10.23;;;8.57;;
56511;SDS011;42408;53.238;5.686;2022-07-24T01:54:40;9.73;;;8.33;;
56511;SDS011;42408;53.238;5.686;2022-07-24T01:57:05;12.20;;;8.73;;
56511;SDS011;42408;53.238;5.686;2022-07-24T01:59:31;13.10;;;9.40;;
56511;SDS011;42408;53.238;5.686;2022-07-24T02:01:56;11.70;;;9.37;;
56511;SDS011;42408;53.238;5.686;2022-07-24T02:04:22;12.40;;;9.53;;
56511;SDS011;42408;53.238;5.686;2022-07-24T02:06:48;12.93;;;9.80;;
56511;SDS011;42408;53.238;5.686;2022-07-24T02:09:13;15.87;;;10.77;;
56511;SDS011;42408;53.238;5.686;2022-07-24T02:11:39;13.03;;;10.27;;
56511;SDS011;42408;53.238;5.686;2022-07-24T02:14:04;14.57;;;10.53;;
56511;SDS011;42408;53.238;5.686;2022-07-24T02:16:30;11.90;;;9.77;;
56511;SDS011;42408;53.238;5.686;2022-07-24T02:18:56;13.47;;;9.87;;
56511;SDS011;42408;53.238;5.686;2022-07-24T02:21:21;15.13;;;10.37;;
56511;SDS011;42408;53.238;5.686;2022-07-24T02:23:47;13.33;;;10.57;;
56511;SDS011;42408;53.238;5.686;2022-07-24T02:26:13;12.67;;;11.03;;
56511;SDS011;42408;53.238;5.686;2022-07-24T02:28:38;13.03;;;10.10;;
56511;SDS011;42408;53.238;5.686;2022-07-24T02:31:04;11.80;;;9.57;;
56511;SDS011;42408;53.238;5.686;2022-07-24T02:33:29;13.47;;;10.40;;
56511;SDS011;42408;53.238;5.686;2022-07-24T02:35:55;12.50;;;9.93;;
56511;SDS011;42408;53.238;5.686;2022-07-24T02:38:20;15.27;;;9.80;;
56511;SDS011;42408;53.238;5.686;2022-07-24T02:40:46;14.10;;;10.90;;
56511;SDS011;42408;53.238;5.686;2022-07-24T02:43:12;13.13;;;10.10;;
56511;SDS011;42408;53.238;5.686;2022-07-24T02:45:37;14.40;;;10.17;;
56511;SDS011;42408;53.238;5.686;2022-07-24T02:48:03;12.40;;;9.97;;
56511;SDS011;42408;53.238;5.686;2022-07-24T02:50:30;14.45;;;10.60;;
56511;SDS011;42408;53.238;5.686;2022-07-24T02:52:57;12.38;;;10.57;;
56511;SDS011;42408;53.238;5.686;2022-07-24T02:55:22;13.47;;;10.40;;
56511;SDS011;42408;53.238;5.686;2022-07-24T02:57:49;14.07;;;11.40;;
56511;SDS011;42408;53.238;5.686;2022-07-24T03:00:15;13.60;;;11.00;;
56511;SDS011;42408;53.238;5.686;2022-07-24T03:05:07;13.02;;;9.60;;
56511;SDS011;42408;53.238;5.686;2022-07-24T03:07:33;12.18;;;9.27;;
56511;SDS011;42408;53.238;5.686;2022-07-24T03:10:01;13.40;;;10.98;;
56511;SDS011;42408;53.238;5.686;2022-07-24T03:12:31;13.38;;;10.18;;
56511;SDS011;42408;53.238;5.686;2022-07-24T03:14:57;12.20;;;10.47;;
56511;SDS011;42408;53.238;5.686;2022-07-24T03:17:22;15.73;;;10.37;;
56511;SDS011;42408;53.238;5.686;2022-07-24T03:19:48;12.63;;;10.23;;
56511;SDS011;42408;53.238;5.686;2022-07-24T03:22:14;13.47;;;10.80;;
56511;SDS011;42408;53.238;5.686;2022-07-24T03:24:39;15.33;;;10.70;;
56511;SDS011;42408;53.238;5.686;2022-07-24T03:27:05;14.67;;;10.30;;
56511;SDS011;42408;53.238;5.686;2022-07-24T03:29:30;13.27;;;10.90;;
56511;SDS011;42408;53.238;5.686;2022-07-24T03:31:56;14.20;;;10.60;;
56511;SDS011;42408;53.238;5.686;2022-07-24T03:34:22;13.83;;;10.80;;
56511;SDS011;42408;53.238;5.686;2022-07-24T03:36:47;12.87;;;10.60;;
56511;SDS011;42408;53.238;5.686;2022-07-24T03:39:13;13.13;;;10.33;;
56511;SDS011;42408;53.238;5.686;2022-07-24T03:41:39;13.33;;;10.40;;
56511;SDS011;42408;53.238;5.686;2022-07-24T03:44:04;11.80;;;10.40;;
56511;SDS011;42408;53.238;5.686;2022-07-24T03:46:31;13.35;;;10.52;;
56511;SDS011;42408;53.238;5.686;2022-07-24T03:48:57;12.57;;;10.13;;
56511;SDS011;42408;53.238;5.686;2022-07-24T03:51:23;15.43;;;11.23;;
56511;SDS011;42408;53.238;5.686;2022-07-24T03:53:49;15.63;;;10.70;;
56511;SDS011;42408;53.238;5.686;2022-07-24T03:56:15;19.23;;;10.07;;
56511;SDS011;42408;53.238;5.686;2022-07-24T03:58:40;14.77;;;10.40;;
56511;SDS011;42408;53.238;5.686;2022-07-24T04:01:06;13.80;;;10.53;;
56511;SDS011;42408;53.238;5.686;2022-07-24T04:03:32;14.70;;;10.53;;
56511;SDS011;42408;53.238;5.686;2022-07-24T04:06:00;13.70;;;10.60;;
56511;SDS011;42408;53.238;5.686;2022-07-24T04:08:27;14.45;;;10.93;;
56511;SDS011;42408;53.238;5.686;2022-07-24T04:10:52;17.47;;;10.83;;
56511;SDS011;42408;53.238;5.686;2022-07-24T04:13:23;13.25;;;10.05;;
56511;SDS011;42408;53.238;5.686;2022-07-24T04:15:48;14.00;;;10.25;;
56511;SDS011;42408;53.238;5.686;2022-07-24T04:18:14;13.67;;;10.67;;
56511;SDS011;42408;53.238;5.686;2022-07-24T04:20:40;13.27;;;11.52;;
56511;SDS011;42408;53.238;5.686;2022-07-24T04:23:06;14.63;;;10.60;;
56511;SDS011;42408;53.238;5.686;2022-07-24T04:25:31;15.27;;;11.40;;
56511;SDS011;42408;53.238;5.686;2022-07-24T04:27:59;14.95;;;11.10;;
56511;SDS011;42408;53.238;5.686;2022-07-24T04:30:25;15.85;;;11.30;;
56511;SDS011;42408;53.238;5.686;2022-07-24T04:32:51;15.07;;;11.00;;
56511;SDS011;42408;53.238;5.686;2022-07-24T04:35:16;15.70;;;11.40;;
56511;SDS011;42408;53.238;5.686;2022-07-24T04:37:42;15.93;;;11.77;;
56511;SDS011;42408;53.238;5.686;2022-07-24T04:40:08;15.17;;;10.73;;
56511;SDS011;42408;53.238;5.686;2022-07-24T04:42:34;16.15;;;11.23;;
56511;SDS011;42408;53.238;5.686;2022-07-24T04:45:00;17.30;;;12.37;;
56511;SDS011;42408;53.238;5.686;2022-07-24T04:47:25;18.40;;;12.10;;
56511;SDS011;42408;53.238;5.686;2022-07-24T04:49:51;14.53;;;10.83;;
56511;SDS011;42408;53.238;5.686;2022-07-24T04:52:17;18.40;;;11.70;;
56511;SDS011;42408;53.238;5.686;2022-07-24T04:54:42;14.53;;;11.17;;
56511;SDS011;42408;53.238;5.686;2022-07-24T04:57:08;14.00;;;10.93;;
56511;SDS011;42408;53.238;5.686;2022-07-24T04:59:33;14.43;;;11.47;;
56511;SDS011;42408;53.238;5.686;2022-07-24T05:01:59;15.37;;;11.13;;
56511;SDS011;42408;53.238;5.686;2022-07-24T05:04:25;16.50;;;11.43;;
56511;SDS011;42408;53.238;5.686;2022-07-24T05:06:50;15.90;;;11.93;;
56511;SDS011;42408;53.238;5.686;2022-07-24T05:09:16;14.43;;;11.10;;
56511;SDS011;42408;53.238;5.686;2022-07-24T05:11:41;13.97;;;10.87;;
56511;SDS011;42408;53.238;5.686;2022-07-24T05:14:07;14.80;;;10.90;;
56511;SDS011;42408;53.238;5.686;2022-07-24T05:16:33;16.17;;;12.27;;
56511;SDS011;42408;53.238;5.686;2022-07-24T05:18:58;16.60;;;12.30;;
56511;SDS011;42408;53.238;5.686;2022-07-24T05:21:24;15.67;;;12.17;;
56511;SDS011;42408;53.238;5.686;2022-07-24T05:23:50;15.83;;;12.00;;
56511;SDS011;42408;53.238;5.686;2022-07-24T05:26:15;15.40;;;12.60;;
56511;SDS011;42408;53.238;5.686;2022-07-24T05:28:41;17.53;;;12.70;;
56511;SDS011;42408;53.238;5.686;2022-07-24T05:31:06;15.07;;;11.60;;
56511;SDS011;42408;53.238;5.686;2022-07-24T05:33:33;17.48;;;11.77;;
56511;SDS011;42408;53.238;5.686;2022-07-24T05:35:59;15.87;;;12.50;;
56511;SDS011;42408;53.238;5.686;2022-07-24T05:38:24;19.07;;;12.97;;
56511;SDS011;42408;53.238;5.686;2022-07-24T05:40:50;17.30;;;12.80;;
56511;SDS011;42408;53.238;5.686;2022-07-24T05:43:16;20.20;;;13.77;;
56511;SDS011;42408;53.238;5.686;2022-07-24T05:45:42;17.10;;;12.90;;
56511;SDS011;42408;53.238;5.686;2022-07-24T05:48:08;16.70;;;13.60;;
56511;SDS011;42408;53.238;5.686;2022-07-24T05:50:33;15.07;;;13.03;;
56511;SDS011;42408;53.238;5.686;2022-07-24T05:52:59;21.27;;;14.23;;
56511;SDS011;42408;53.238;5.686;2022-07-24T05:55:24;19.00;;;14.30;;
56511;SDS011;42408;53.238;5.686;2022-07-24T05:57:50;17.73;;;13.67;;
56511;SDS011;42408;53.238;5.686;2022-07-24T06:00:16;17.30;;;14.20;;
56511;SDS011;42408;53.238;5.686;2022-07-24T06:02:45;17.10;;;13.73;;
56511;SDS011;42408;53.238;5.686;2022-07-24T06:05:12;17.50;;;14.55;;
56511;SDS011;42408;53.238;5.686;2022-07-24T06:07:41;18.95;;;14.93;;
56511;SDS011;42408;53.238;5.686;2022-07-24T06:10:07;21.02;;;15.60;;
56511;SDS011;42408;53.238;5.686;2022-07-24T06:12:33;20.20;;;15.52;;
56511;SDS011;42408;53.238;5.686;2022-07-24T06:14:59;22.43;;;16.10;;
56511;SDS011;42408;53.238;5.686;2022-07-24T06:17:25;21.00;;;16.73;;
56511;SDS011;42408;53.238;5.686;2022-07-24T06:19:50;20.20;;;15.97;;
56511;SDS011;42408;53.238;5.686;2022-07-24T06:22:16;19.93;;;14.53;;
56511;SDS011;42408;53.238;5.686;2022-07-24T06:24:41;18.40;;;14.67;;
56511;SDS011;42408;53.238;5.686;2022-07-24T06:27:07;18.70;;;14.50;;
56511;SDS011;42408;53.238;5.686;2022-07-24T06:29:33;16.03;;;12.67;;
56511;SDS011;42408;53.238;5.686;2022-07-24T06:31:59;21.47;;;12.27;;
56511;SDS011;42408;53.238;5.686;2022-07-24T06:34:24;15.60;;;11.93;;
56511;SDS011;42408;53.238;5.686;2022-07-24T06:36:50;16.53;;;10.97;;
56511;SDS011;42408;53.238;5.686;2022-07-24T06:39:16;16.80;;;10.95;;
56511;SDS011;42408;53.238;5.686;2022-07-24T06:41:42;13.57;;;9.27;;
56511;SDS011;42408;53.238;5.686;2022-07-24T06:44:08;13.50;;;8.57;;
56511;SDS011;42408;53.238;5.686;2022-07-24T06:46:34;9.93;;;7.17;;
56511;SDS011;42408;53.238;5.686;2022-07-24T06:48:59;11.33;;;6.83;;
56511;SDS011;42408;53.238;5.686;2022-07-24T06:51:25;15.30;;;7.27;;
56511;SDS011;42408;53.238;5.686;2022-07-24T06:53:51;7.70;;;5.70;;
56511;SDS011;42408;53.238;5.686;2022-07-24T06:56:16;14.97;;;6.30;;
56511;SDS011;42408;53.238;5.686;2022-07-24T06:58:42;13.00;;;6.97;;
56511;SDS011;42408;53.238;5.686;2022-07-24T07:01:08;8.60;;;6.57;;
56511;SDS011;42408;53.238;5.686;2022-07-24T07:03:33;11.03;;;6.87;;
56511;SDS011;42408;53.238;5.686;2022-07-24T07:05:59;13.87;;;6.53;;
56511;SDS011;42408;53.238;5.686;2022-07-24T07:08:25;11.93;;;6.23;;
56511;SDS011;42408;53.238;5.686;2022-07-24T07:10:50;9.43;;;5.50;;
56511;SDS011;42408;53.238;5.686;2022-07-24T07:13:16;9.40;;;5.93;;
56511;SDS011;42408;53.238;5.686;2022-07-24T07:15:42;10.20;;;5.88;;
56511;SDS011;42408;53.238;5.686;2022-07-24T07:18:08;11.97;;;5.17;;
56511;SDS011;42408;53.238;5.686;2022-07-24T07:20:33;7.63;;;5.23;;
56511;SDS011;42408;53.238;5.686;2022-07-24T07:22:59;11.70;;;5.43;;
56511;SDS011;42408;53.238;5.686;2022-07-24T07:25:25;10.00;;;5.70;;
56511;SDS011;42408;53.238;5.686;2022-07-24T07:27:50;11.90;;;5.43;;
56511;SDS011;42408;53.238;5.686;2022-07-24T07:30:16;11.57;;;5.83;;
56511;SDS011;42408;53.238;5.686;2022-07-24T07:32:42;7.47;;;5.20;;
56511;SDS011;42408;53.238;5.686;2022-07-24T07:35:08;6.90;;;5.23;;
56511;SDS011;42408;53.238;5.686;2022-07-24T07:37:34;8.15;;;5.53;;
56511;SDS011;42408;53.238;5.686;2022-07-24T07:39:59;13.33;;;6.20;;
56511;SDS011;42408;53.238;5.686;2022-07-24T07:42:25;10.02;;;5.35;;
56511;SDS011;42408;53.238;5.686;2022-07-24T07:44:51;9.73;;;5.30;;
56511;SDS011;42408;53.238;5.686;2022-07-24T07:47:17;9.87;;;5.37;;
56511;SDS011;42408;53.238;5.686;2022-07-24T07:49:42;9.83;;;5.00;;
56511;SDS011;42408;53.238;5.686;2022-07-24T07:52:08;10.67;;;5.37;;
56511;SDS011;42408;53.238;5.686;2022-07-24T07:54:34;8.07;;;5.32;;
56511;SDS011;42408;53.238;5.686;2022-07-24T07:57:00;8.23;;;5.30;;
56511;SDS011;42408;53.238;5.686;2022-07-24T07:59:26;9.30;;;4.87;;
56511;SDS011;42408;53.238;5.686;2022-07-24T08:01:51;9.33;;;4.80;;
56511;SDS011;42408;53.238;5.686;2022-07-24T08:04:17;8.13;;;5.23;;
56511;SDS011;42408;53.238;5.686;2022-07-24T08:06:43;8.38;;;4.70;;
56511;SDS011;42408;53.238;5.686;2022-07-24T08:09:09;7.53;;;4.53;;
56511;SDS011;42408;53.238;5.686;2022-07-24T08:11:35;8.93;;;4.80;;
56511;SDS011;42408;53.238;5.686;2022-07-24T08:14:00;7.87;;;5.30;;
56511;SDS011;42408;53.238;5.686;2022-07-24T08:16:26;6.97;;;4.70;;
56511;SDS011;42408;53.238;5.686;2022-07-24T08:18:51;8.60;;;4.17;;
56511;SDS011;42408;53.238;5.686;2022-07-24T08:21:17;6.20;;;4.13;;
56511;SDS011;42408;53.238;5.686;2022-07-24T08:23:44;8.13;;;4.27;;
56511;SDS011;42408;53.238;5.686;2022-07-24T08:26:11;8.65;;;3.97;;
56511;SDS011;42408;53.238;5.686;2022-07-24T08:28:37;8.60;;;3.53;;
56511;SDS011;42408;53.238;5.686;2022-07-24T08:31:03;6.57;;;4.10;;
56511;SDS011;42408;53.238;5.686;2022-07-24T08:33:29;7.27;;;4.47;;
56511;SDS011;42408;53.238;5.686;2022-07-24T08:35:54;6.85;;;4.15;;
56511;SDS011;42408;53.238;5.686;2022-07-24T08:38:20;8.27;;;3.83;;
56511;SDS011;42408;53.238;5.686;2022-07-24T08:40:46;7.13;;;3.60;;
56511;SDS011;42408;53.238;5.686;2022-07-24T08:43:11;9.30;;;3.93;;
56511;SDS011;42408;53.238;5.686;2022-07-24T08:45:38;6.13;;;3.40;;
56511;SDS011;42408;53.238;5.686;2022-07-24T08:48:08;8.25;;;3.90;;
56511;SDS011;42408;53.238;5.686;2022-07-24T08:50:37;5.57;;;3.40;;
56511;SDS011;42408;53.238;5.686;2022-07-24T08:53:05;5.50;;;3.42;;
56511;SDS011;42408;53.238;5.686;2022-07-24T08:55:31;6.50;;;3.35;;
56511;SDS011;42408;53.238;5.686;2022-07-24T08:57:58;6.53;;;3.15;;
56511;SDS011;42408;53.238;5.686;2022-07-24T09:00:25;6.18;;;3.40;;
56511;SDS011;42408;53.238;5.686;2022-07-24T09:02:53;8.55;;;3.70;;
56511;SDS011;42408;53.238;5.686;2022-07-24T09:05:18;7.97;;;3.15;;
56511;SDS011;42408;53.238;5.686;2022-07-24T09:07:44;5.53;;;3.10;;
56511;SDS011;42408;53.238;5.686;2022-07-24T09:10:11;6.55;;;3.75;;
56511;SDS011;42408;53.238;5.686;2022-07-24T09:12:42;7.22;;;3.33;;
56511;SDS011;42408;53.238;5.686;2022-07-24T09:15:14;5.50;;;3.03;;
56511;SDS011;42408;53.238;5.686;2022-07-24T09:17:54;6.25;;;3.63;;
56511;SDS011;42408;53.238;5.686;2022-07-24T09:20:25;7.53;;;3.60;;
56511;SDS011;42408;53.238;5.686;2022-07-24T09:22:58;8.38;;;3.22;;
56511;SDS011;42408;53.238;5.686;2022-07-24T09:25:25;6.82;;;3.20;;
56511;SDS011;42408;53.238;5.686;2022-07-24T09:27:56;6.40;;;3.10;;
56511;SDS011;42408;53.238;5.686;2022-07-24T09:30:27;6.72;;;3.38;;
56511;SDS011;42408;53.238;5.686;2022-07-24T09:32:57;7.10;;;3.10;;
56511;SDS011;42408;53.238;5.686;2022-07-24T09:35:32;6.80;;;3.78;;
56511;SDS011;42408;53.238;5.686;2022-07-24T09:37:58;5.80;;;3.47;;
56511;SDS011;42408;53.238;5.686;2022-07-24T09:40:28;7.38;;;2.90;;
56511;SDS011;42408;53.238;5.686;2022-07-24T09:45:56;5.13;;;3.00;;
56511;SDS011;42408;53.238;5.686;2022-07-24T09:48:28;5.63;;;3.22;;
56511;SDS011;42408;53.238;5.686;2022-07-24T09:50:58;5.78;;;3.35;;
56511;SDS011;42408;53.238;5.686;2022-07-24T09:53:26;6.57;;;3.38;;
56511;SDS011;42408;53.238;5.686;2022-07-24T09:56:00;6.85;;;3.20;;
56511;SDS011;42408;53.238;5.686;2022-07-24T09:58:35;5.22;;;3.03;;
56511;SDS011;42408;53.238;5.686;2022-07-24T10:01:02;5.20;;;3.08;;
56511;SDS011;42408;53.238;5.686;2022-07-24T10:03:31;5.03;;;2.85;;
56511;SDS011;42408;53.238;5.686;2022-07-24T10:06:03;5.53;;;2.90;;
56511;SDS011;42408;53.238;5.686;2022-07-24T10:08:30;5.28;;;3.25;;
56511;SDS011;42408;53.238;5.686;2022-07-24T10:10:57;4.68;;;2.60;;
56511;SDS011;42408;53.238;5.686;2022-07-24T10:21:20;7.45;;;3.15;;
56511;SDS011;42408;53.238;5.686;2022-07-24T10:24:10;7.75;;;2.90;;
56511;SDS011;42408;53.238;5.686;2022-07-24T10:26:54;7.72;;;3.00;;
56511;SDS011;42408;53.238;5.686;2022-07-24T10:29:28;8.13;;;3.25;;
56511;SDS011;42408;53.238;5.686;2022-07-24T10:31:57;5.47;;;2.83;;
56511;SDS011;42408;53.238;5.686;2022-07-24T10:42:17;5.15;;;2.65;;
56511;SDS011;42408;53.238;5.686;2022-07-24T10:44:43;5.78;;;2.70;;
56511;SDS011;42408;53.238;5.686;2022-07-24T10:52:27;6.03;;;2.97;;
56511;SDS011;42408;53.238;5.686;2022-07-24T10:57:52;5.25;;;2.80;;
56511;SDS011;42408;53.238;5.686;2022-07-24T11:00:24;5.88;;;2.95;;
56511;SDS011;42408;53.238;5.686;2022-07-24T11:05:32;5.55;;;2.83;;
56511;SDS011;42408;53.238;5.686;2022-07-24T11:18:42;4.07;;;2.35;;
56511;SDS011;42408;53.238;5.686;2022-07-24T11:21:33;5.63;;;2.70;;
56511;SDS011;42408;53.238;5.686;2022-07-24T11:31:43;5.25;;;2.92;;
56511;SDS011;42408;53.238;5.686;2022-07-24T11:34:10;4.80;;;2.53;;
56511;SDS011;42408;53.238;5.686;2022-07-24T11:36:38;6.63;;;2.85;;
56511;SDS011;42408;53.238;5.686;2022-07-24T11:39:07;3.55;;;2.50;;
56511;SDS011;42408;53.238;5.686;2022-07-24T11:41:46;4.07;;;2.40;;
56511;SDS011;42408;53.238;5.686;2022-07-24T11:44:14;4.13;;;2.58;;
56511;SDS011;42408;53.238;5.686;2022-07-24T11:46:47;4.00;;;2.40;;
56511;SDS011;42408;53.238;5.686;2022-07-24T11:49:13;5.70;;;2.40;;
56511;SDS011;42408;53.238;5.686;2022-07-24T11:51:49;4.60;;;2.70;;
56511;SDS011;42408;53.238;5.686;2022-07-24T11:56:52;7.00;;;2.80;;
56511;SDS011;42408;53.238;5.686;2022-07-24T12:01:54;4.80;;;2.67;;
56511;SDS011;42408;53.238;5.686;2022-07-24T12:04:40;3.33;;;2.10;;
56511;SDS011;42408;53.238;5.686;2022-07-24T12:07:08;6.20;;;2.58;;
56511;SDS011;42408;53.238;5.686;2022-07-24T12:09:47;5.53;;;2.33;;
56511;SDS011;42408;53.238;5.686;2022-07-24T12:14:50;4.22;;;2.50;;
56511;SDS011;42408;53.238;5.686;2022-07-24T12:17:27;5.80;;;2.42;;
56511;SDS011;42408;53.238;5.686;2022-07-24T12:19:56;5.40;;;2.67;;
56511;SDS011;42408;53.238;5.686;2022-07-24T12:22:24;4.13;;;2.60;;
56511;SDS011;42408;53.238;5.686;2022-07-24T12:24:51;4.63;;;2.53;;
56511;SDS011;42408;53.238;5.686;2022-07-24T12:30:49;4.80;;;2.20;;
56511;SDS011;42408;53.238;5.686;2022-07-24T12:32:55;3.60;;;2.05;;
56511;SDS011;42408;53.238;5.686;2022-07-24T12:35:21;5.88;;;2.50;;
56511;SDS011;42408;53.238;5.686;2022-07-24T12:37:48;4.22;;;2.20;;
56511;SDS011;42408;53.238;5.686;2022-07-24T12:43:01;4.22;;;2.30;;
56511;SDS011;42408;53.238;5.686;2022-07-24T12:45:29;4.10;;;2.15;;
56511;SDS011;42408;53.238;5.686;2022-07-24T12:50:57;3.35;;;1.98;;
56511;SDS011;42408;53.238;5.686;2022-07-24T12:53:29;3.60;;;1.90;;
56511;SDS011;42408;53.238;5.686;2022-07-24T12:56:00;4.30;;;2.03;;
56511;SDS011;42408;53.238;5.686;2022-07-24T13:02:09;3.70;;;2.03;;
56511;SDS011;42408;53.238;5.686;2022-07-24T13:04:17;4.95;;;2.25;;
56511;SDS011;42408;53.238;5.686;2022-07-24T13:06:45;4.03;;;1.80;;
56511;SDS011;42408;53.238;5.686;2022-07-24T13:09:13;4.18;;;2.47;;
56511;SDS011;42408;53.238;5.686;2022-07-24T13:11:40;4.53;;;2.15;;
56511;SDS011;42408;53.238;5.686;2022-07-24T13:14:07;3.85;;;2.38;;
56511;SDS011;42408;53.238;5.686;2022-07-24T13:16:35;5.05;;;2.30;;
56511;SDS011;42408;53.238;5.686;2022-07-24T13:19:04;3.88;;;1.98;;
56511;SDS011;42408;53.238;5.686;2022-07-24T13:21:30;5.50;;;2.30;;
56511;SDS011;42408;53.238;5.686;2022-07-24T13:23:56;5.00;;;2.30;;
56511;SDS011;42408;53.238;5.686;2022-07-24T13:26:22;3.92;;;2.20;;
56511;SDS011;42408;53.238;5.686;2022-07-24T13:28:48;3.80;;;2.10;;
56511;SDS011;42408;53.238;5.686;2022-07-24T13:31:14;3.22;;;1.92;;
56511;SDS011;42408;53.238;5.686;2022-07-24T13:33:40;3.13;;;2.20;;
56511;SDS011;42408;53.238;5.686;2022-07-24T13:36:06;4.82;;;2.20;;
56511;SDS011;42408;53.238;5.686;2022-07-24T13:40:57;4.20;;;2.30;;
56511;SDS011;42408;53.238;5.686;2022-07-24T13:43:23;4.45;;;2.22;;
56511;SDS011;42408;53.238;5.686;2022-07-24T13:45:50;4.97;;;2.47;;
56511;SDS011;42408;53.238;5.686;2022-07-24T13:48:16;4.15;;;2.17;;
56511;SDS011;42408;53.238;5.686;2022-07-24T13:50:42;3.90;;;2.33;;
56511;SDS011;42408;53.238;5.686;2022-07-24T13:53:08;5.00;;;2.45;;
56511;SDS011;42408;53.238;5.686;2022-07-24T13:55:33;3.17;;;2.15;;
56511;SDS011;42408;53.238;5.686;2022-07-24T13:57:59;4.45;;;2.53;;
56511;SDS011;42408;53.238;5.686;2022-07-24T14:00:25;3.85;;;2.25;;
56511;SDS011;42408;53.238;5.686;2022-07-24T14:02:50;5.13;;;2.20;;
56511;SDS011;42408;53.238;5.686;2022-07-24T14:05:23;4.72;;;2.35;;
56511;SDS011;42408;53.238;5.686;2022-07-24T14:07:50;4.90;;;2.40;;
56511;SDS011;42408;53.238;5.686;2022-07-24T14:10:16;5.10;;;2.35;;
56511;SDS011;42408;53.238;5.686;2022-07-24T14:12:42;4.28;;;2.30;;
56511;SDS011;42408;53.238;5.686;2022-07-24T14:15:08;5.47;;;2.38;;
56511;SDS011;42408;53.238;5.686;2022-07-24T14:17:34;4.93;;;2.35;;
56511;SDS011;42408;53.238;5.686;2022-07-24T14:22:27;5.78;;;2.67;;
56511;SDS011;42408;53.238;5.686;2022-07-24T14:24:52;3.92;;;2.40;;
56511;SDS011;42408;53.238;5.686;2022-07-24T14:27:18;4.93;;;3.00;;
56511;SDS011;42408;53.238;5.686;2022-07-24T14:29:43;8.20;;;3.20;;
56511;SDS011;42408;53.238;5.686;2022-07-24T14:32:09;5.82;;;2.72;;
56511;SDS011;42408;53.238;5.686;2022-07-24T14:34:35;8.02;;;2.60;;
56511;SDS011;42408;53.238;5.686;2022-07-24T14:37:00;5.93;;;2.72;;
56511;SDS011;42408;53.238;5.686;2022-07-24T14:39:26;5.57;;;2.58;;
56511;SDS011;42408;53.238;5.686;2022-07-24T14:41:53;5.55;;;2.63;;
56511;SDS011;42408;53.238;5.686;2022-07-24T14:44:19;6.53;;;2.85;;
56511;SDS011;42408;53.238;5.686;2022-07-24T14:46:45;6.30;;;2.65;;
56511;SDS011;42408;53.238;5.686;2022-07-24T14:49:10;4.82;;;2.65;;
56511;SDS011;42408;53.238;5.686;2022-07-24T14:51:36;5.22;;;2.67;;
56511;SDS011;42408;53.238;5.686;2022-07-24T14:56:28;4.47;;;2.70;;
56511;SDS011;42408;53.238;5.686;2022-07-24T14:58:54;5.28;;;2.80;;
56511;SDS011;42408;53.238;5.686;2022-07-24T15:01:19;4.82;;;2.65;;
56511;SDS011;42408;53.238;5.686;2022-07-24T15:03:45;4.60;;;2.90;;
56511;SDS011;42408;53.238;5.686;2022-07-24T15:06:11;4.45;;;2.80;;
56511;SDS011;42408;53.238;5.686;2022-07-24T15:08:36;7.55;;;3.30;;
56511;SDS011;42408;53.238;5.686;2022-07-24T15:11:02;4.93;;;2.78;;
56511;SDS011;42408;53.238;5.686;2022-07-24T15:13:27;5.22;;;2.60;;
56511;SDS011;42408;53.238;5.686;2022-07-24T15:15:53;6.13;;;2.85;;
56511;SDS011;42408;53.238;5.686;2022-07-24T15:18:20;5.72;;;2.88;;
56511;SDS011;42408;53.238;5.686;2022-07-24T15:20:47;6.93;;;2.90;;
56511;SDS011;42408;53.238;5.686;2022-07-24T15:23:12;4.72;;;2.85;;
56511;SDS011;42408;53.238;5.686;2022-07-24T15:25:38;5.90;;;3.17;;
56511;SDS011;42408;53.238;5.686;2022-07-24T15:28:04;5.78;;;2.70;;
56511;SDS011;42408;53.238;5.686;2022-07-24T15:32:56;6.63;;;3.72;;
56511;SDS011;42408;53.238;5.686;2022-07-24T15:35:21;5.30;;;2.97;;
56511;SDS011;42408;53.238;5.686;2022-07-24T15:37:47;3.75;;;2.60;;
56511;SDS011;42408;53.238;5.686;2022-07-24T15:40:13;5.43;;;2.80;;
56511;SDS011;42408;53.238;5.686;2022-07-24T15:42:39;6.03;;;3.58;;
56511;SDS011;42408;53.238;5.686;2022-07-24T15:45:05;6.95;;;4.22;;
56511;SDS011;42408;53.238;5.686;2022-07-24T15:49:56;5.68;;;3.28;;
56511;SDS011;42408;53.238;5.686;2022-07-24T15:52:22;16.85;;;14.30;;
56511;SDS011;42408;53.238;5.686;2022-07-24T15:54:47;26.05;;;23.20;;
56511;SDS011;42408;53.238;5.686;2022-07-24T15:57:13;11.10;;;8.40;;
56511;SDS011;42408;53.238;5.686;2022-07-24T15:59:39;19.85;;;17.85;;